sensor_id;sensor_type;location;lat;lon;timestamp;temperature;humidity
44579;DHT22;37422;51.402;0.016;2022-10-22T00:00:45;14.70;99.90
44579;DHT22;37422;51.402;0.016;2022-10-22T00:03:13;14.70;99.90
44579;DHT22;37422;51.402;0.016;2022-10-22T00:05:41;14.70;99.90
44579;DHT22;37422;51.402;0.016;2022-10-22T00:08:09;14.60;99.90
44579;DHT22;37422;51.402;0.016;2022-10-22T00:10:37;14.60;99.90
44579;DHT22;37422;51.402;0.016;2022-10-22T00:13:05;14.60;99.90
44579;DHT22;37422;51.402;0.016;2022-10-22T00:15:35;14.60;99.90
44579;DHT22;37422;51.402;0.016;2022-10-22T00:18:03;14.50;99.90
44579;DHT22;37422;51.402;0.016;2022-10-22T00:20:33;14.60;99.90
44579;DHT22;37422;51.402;0.016;2022-10-22T00:23:05;14.50;99.90
44579;DHT22;37422;51.402;0.016;2022-10-22T00:25:35;14.50;99.90
44579;DHT22;37422;51.402;0.016;2022-10-22T00:28:03;14.50;99.90
44579;DHT22;37422;51.402;0.016;2022-10-22T00:30:31;14.50;99.90
44579;DHT22;37422;51.402;0.016;2022-10-22T00:32:58;14.50;99.90
44579;DHT22;37422;51.402;0.016;2022-10-22T00:35:26;14.50;99.90
44579;DHT22;37422;51.402;0.016;2022-10-22T00:37:54;14.60;99.90
44579;DHT22;37422;51.402;0.016;2022-10-22T00:40:21;14.60;99.90
44579;DHT22;37422;51.402;0.016;2022-10-22T00:42:49;14.60;99.90
44579;DHT22;37422;51.402;0.016;2022-10-22T00:45:26;14.60;99.90
44579;DHT22;37422;51.402;0.016;2022-10-22T00:53:16;14.70;99.90
44579;DHT22;37422;51.402;0.016;2022-10-22T00:55:48;14.60;99.90
44579;DHT22;37422;51.402;0.016;2022-10-22T00:58:19;14.70;99.90
44579;DHT22;37422;51.402;0.016;2022-10-22T01:00:48;14.70;99.90
44579;DHT22;37422;51.402;0.016;2022-10-22T01:03:16;14.70;99.90
44579;DHT22;37422;51.402;0.016;2022-10-22T01:12:07;14.60;99.90
44579;DHT22;37422;51.402;0.016;2022-10-22T01:23:22;14.60;99.90
44579;DHT22;37422;51.402;0.016;2022-10-22T01:31:11;14.40;99.90
44579;DHT22;37422;51.402;0.016;2022-10-22T01:33:40;14.30;99.90
44579;DHT22;37422;51.402;0.016;2022-10-22T01:36:09;14.30;99.90
44579;DHT22;37422;51.402;0.016;2022-10-22T01:38:38;14.30;99.90
44579;DHT22;37422;51.402;0.016;2022-10-22T01:41:06;14.20;99.90
44579;DHT22;37422;51.402;0.016;2022-10-22T01:43:34;14.20;99.90
44579;DHT22;37422;51.402;0.016;2022-10-22T01:46:04;14.20;99.90
44579;DHT22;37422;51.402;0.016;2022-10-22T02:05:21;14.30;99.90
44579;DHT22;37422;51.402;0.016;2022-10-22T02:08:05;14.30;99.90
44579;DHT22;37422;51.402;0.016;2022-10-22T02:10:34;14.30;99.90
44579;DHT22;37422;51.402;0.016;2022-10-22T02:13:03;14.30;99.90
44579;DHT22;37422;51.402;0.016;2022-10-22T02:15:32;14.20;99.90
44579;DHT22;37422;51.402;0.016;2022-10-22T02:18:02;14.20;99.90
44579;DHT22;37422;51.402;0.016;2022-10-22T02:20:32;14.30;99.90
44579;DHT22;37422;51.402;0.016;2022-10-22T02:23:00;14.30;99.90
44579;DHT22;37422;51.402;0.016;2022-10-22T02:25:34;14.30;99.90
44579;DHT22;37422;51.402;0.016;2022-10-22T02:28:11;14.30;99.90
44579;DHT22;37422;51.402;0.016;2022-10-22T02:30:42;14.40;99.90
44579;DHT22;37422;51.402;0.016;2022-10-22T02:33:29;14.30;99.90
44579;DHT22;37422;51.402;0.016;2022-10-22T02:35:57;14.30;99.90
44579;DHT22;37422;51.402;0.016;2022-10-22T02:38:27;14.30;99.90
44579;DHT22;37422;51.402;0.016;2022-10-22T02:40:55;14.30;99.90
44579;DHT22;37422;51.402;0.016;2022-10-22T02:43:24;14.30;99.90
44579;DHT22;37422;51.402;0.016;2022-10-22T02:45:51;14.30;99.90
44579;DHT22;37422;51.402;0.016;2022-10-22T02:48:19;14.30;99.90
44579;DHT22;37422;51.402;0.016;2022-10-22T02:50:47;14.30;99.90
44579;DHT22;37422;51.402;0.016;2022-10-22T02:53:14;14.30;99.90
44579;DHT22;37422;51.402;0.016;2022-10-22T02:55:42;14.20;99.90
44579;DHT22;37422;51.402;0.016;2022-10-22T02:58:09;14.20;99.90
44579;DHT22;37422;51.402;0.016;2022-10-22T03:00:37;14.30;99.90
44579;DHT22;37422;51.402;0.016;2022-10-22T03:03:05;14.30;99.90
44579;DHT22;37422;51.402;0.016;2022-10-22T03:05:32;14.30;99.90
44579;DHT22;37422;51.402;0.016;2022-10-22T03:08:00;14.30;99.90
44579;DHT22;37422;51.402;0.016;2022-10-22T03:10:27;14.30;99.90
44579;DHT22;37422;51.402;0.016;2022-10-22T03:12:55;14.30;99.90
44579;DHT22;37422;51.402;0.016;2022-10-22T03:15:23;14.40;99.90
44579;DHT22;37422;51.402;0.016;2022-10-22T03:17:50;14.40;99.90
44579;DHT22;37422;51.402;0.016;2022-10-22T03:20:18;14.40;99.90
44579;DHT22;37422;51.402;0.016;2022-10-22T03:22:46;14.40;99.90
44579;DHT22;37422;51.402;0.016;2022-10-22T03:25:18;14.40;99.90
44579;DHT22;37422;51.402;0.016;2022-10-22T03:27:49;14.40;99.90
44579;DHT22;37422;51.402;0.016;2022-10-22T03:30:18;14.30;99.90
44579;DHT22;37422;51.402;0.016;2022-10-22T03:32:46;14.30;99.90
44579;DHT22;37422;51.402;0.016;2022-10-22T03:35:14;14.30;99.90
44579;DHT22;37422;51.402;0.016;2022-10-22T03:37:41;14.30;99.90
44579;DHT22;37422;51.402;0.016;2022-10-22T03:40:10;14.30;99.90
44579;DHT22;37422;51.402;0.016;2022-10-22T03:42:39;14.30;99.90
44579;DHT22;37422;51.402;0.016;2022-10-22T03:45:07;14.30;99.90
44579;DHT22;37422;51.402;0.016;2022-10-22T03:47:35;14.30;99.90
44579;DHT22;37422;51.402;0.016;2022-10-22T03:50:04;14.30;99.90
44579;DHT22;37422;51.402;0.016;2022-10-22T03:52:36;14.30;99.90
44579;DHT22;37422;51.402;0.016;2022-10-22T03:55:05;14.30;99.90
44579;DHT22;37422;51.402;0.016;2022-10-22T03:57:33;14.30;99.90
44579;DHT22;37422;51.402;0.016;2022-10-22T04:00:02;14.30;99.90
44579;DHT22;37422;51.402;0.016;2022-10-22T04:02:31;14.30;99.90
44579;DHT22;37422;51.402;0.016;2022-10-22T04:04:59;14.20;99.90
44579;DHT22;37422;51.402;0.016;2022-10-22T04:07:26;14.10;99.90
44579;DHT22;37422;51.402;0.016;2022-10-22T04:09:54;14.10;99.90
44579;DHT22;37422;51.402;0.016;2022-10-22T04:12:22;14.00;99.90
44579;DHT22;37422;51.402;0.016;2022-10-22T04:14:50;13.90;99.90
44579;DHT22;37422;51.402;0.016;2022-10-22T04:17:17;13.80;99.90
44579;DHT22;37422;51.402;0.016;2022-10-22T04:19:45;13.70;99.90
44579;DHT22;37422;51.402;0.016;2022-10-22T04:22:12;13.70;99.90
44579;DHT22;37422;51.402;0.016;2022-10-22T04:24:40;13.60;99.90
44579;DHT22;37422;51.402;0.016;2022-10-22T04:27:07;13.60;99.90
44579;DHT22;37422;51.402;0.016;2022-10-22T04:29:35;13.60;99.90
44579;DHT22;37422;51.402;0.016;2022-10-22T04:32:03;13.50;99.90
44579;DHT22;37422;51.402;0.016;2022-10-22T04:34:31;13.50;99.90
44579;DHT22;37422;51.402;0.016;2022-10-22T04:36:58;13.40;99.90
44579;DHT22;37422;51.402;0.016;2022-10-22T04:39:26;13.40;99.90
44579;DHT22;37422;51.402;0.016;2022-10-22T04:41:53;13.40;99.90
44579;DHT22;37422;51.402;0.016;2022-10-22T04:44:21;13.30;99.90
44579;DHT22;37422;51.402;0.016;2022-10-22T04:46:49;13.30;99.90
44579;DHT22;37422;51.402;0.016;2022-10-22T04:49:16;13.20;99.90
44579;DHT22;37422;51.402;0.016;2022-10-22T04:51:45;13.20;99.90
44579;DHT22;37422;51.402;0.016;2022-10-22T04:54:13;13.20;99.90
44579;DHT22;37422;51.402;0.016;2022-10-22T04:56:41;13.10;99.90
44579;DHT22;37422;51.402;0.016;2022-10-22T04:59:12;13.10;99.90
44579;DHT22;37422;51.402;0.016;2022-10-22T05:01:42;13.00;99.90
44579;DHT22;37422;51.402;0.016;2022-10-22T05:04:15;13.00;99.90
44579;DHT22;37422;51.402;0.016;2022-10-22T05:06:44;13.00;99.90
44579;DHT22;37422;51.402;0.016;2022-10-22T05:09:17;12.90;99.90
44579;DHT22;37422;51.402;0.016;2022-10-22T05:11:48;13.00;99.90
44579;DHT22;37422;51.402;0.016;2022-10-22T05:14:21;13.00;99.90
44579;DHT22;37422;51.402;0.016;2022-10-22T05:16:50;13.00;99.90
44579;DHT22;37422;51.402;0.016;2022-10-22T05:19:20;13.00;99.90
44579;DHT22;37422;51.402;0.016;2022-10-22T05:21:52;13.00;99.90
44579;DHT22;37422;51.402;0.016;2022-10-22T05:24:20;12.90;99.90
44579;DHT22;37422;51.402;0.016;2022-10-22T05:26:49;12.90;99.90
44579;DHT22;37422;51.402;0.016;2022-10-22T05:29:17;12.80;99.90
44579;DHT22;37422;51.402;0.016;2022-10-22T05:31:45;12.80;99.90
44579;DHT22;37422;51.402;0.016;2022-10-22T05:34:13;12.80;99.90
44579;DHT22;37422;51.402;0.016;2022-10-22T05:36:41;12.70;99.90
44579;DHT22;37422;51.402;0.016;2022-10-22T05:39:09;12.70;99.90
44579;DHT22;37422;51.402;0.016;2022-10-22T05:41:37;12.60;99.90
44579;DHT22;37422;51.402;0.016;2022-10-22T05:44:05;12.60;99.90
44579;DHT22;37422;51.402;0.016;2022-10-22T05:46:34;12.60;99.90
44579;DHT22;37422;51.402;0.016;2022-10-22T05:49:04;12.60;99.90
44579;DHT22;37422;51.402;0.016;2022-10-22T05:51:35;12.60;99.90
44579;DHT22;37422;51.402;0.016;2022-10-22T05:54:05;12.60;99.90
44579;DHT22;37422;51.402;0.016;2022-10-22T05:56:33;12.50;99.90
44579;DHT22;37422;51.402;0.016;2022-10-22T05:59:01;12.50;99.90
44579;DHT22;37422;51.402;0.016;2022-10-22T06:01:31;12.50;99.90
44579;DHT22;37422;51.402;0.016;2022-10-22T06:04:01;12.50;99.90
44579;DHT22;37422;51.402;0.016;2022-10-22T06:06:49;12.40;99.90
44579;DHT22;37422;51.402;0.016;2022-10-22T06:09:17;12.40;99.90
44579;DHT22;37422;51.402;0.016;2022-10-22T06:11:47;12.40;99.90
44579;DHT22;37422;51.402;0.016;2022-10-22T06:14:15;12.30;99.90
44579;DHT22;37422;51.402;0.016;2022-10-22T06:16:43;12.40;99.90
44579;DHT22;37422;51.402;0.016;2022-10-22T06:19:12;12.40;99.90
44579;DHT22;37422;51.402;0.016;2022-10-22T06:21:40;12.40;99.90
44579;DHT22;37422;51.402;0.016;2022-10-22T06:24:08;12.40;99.90
44579;DHT22;37422;51.402;0.016;2022-10-22T06:26:37;12.40;99.90
44579;DHT22;37422;51.402;0.016;2022-10-22T06:29:05;12.40;99.90
44579;DHT22;37422;51.402;0.016;2022-10-22T06:31:33;12.40;99.90
44579;DHT22;37422;51.402;0.016;2022-10-22T06:34:03;12.40;99.90
44579;DHT22;37422;51.402;0.016;2022-10-22T06:36:31;12.50;99.90
44579;DHT22;37422;51.402;0.016;2022-10-22T06:38:59;12.50;99.90
44579;DHT22;37422;51.402;0.016;2022-10-22T06:41:26;12.50;99.90
44579;DHT22;37422;51.402;0.016;2022-10-22T06:43:56;12.50;99.90
44579;DHT22;37422;51.402;0.016;2022-10-22T06:46:24;12.50;99.90
44579;DHT22;37422;51.402;0.016;2022-10-22T06:48:54;12.50;99.90
44579;DHT22;37422;51.402;0.016;2022-10-22T06:51:23;12.50;99.90
44579;DHT22;37422;51.402;0.016;2022-10-22T06:53:52;12.50;99.90
44579;DHT22;37422;51.402;0.016;2022-10-22T06:56:21;12.50;99.90
44579;DHT22;37422;51.402;0.016;2022-10-22T06:58:51;12.60;99.90
44579;DHT22;37422;51.402;0.016;2022-10-22T07:01:21;12.60;99.90
44579;DHT22;37422;51.402;0.016;2022-10-22T07:03:50;12.70;99.90
44579;DHT22;37422;51.402;0.016;2022-10-22T07:06:18;12.80;99.90
44579;DHT22;37422;51.402;0.016;2022-10-22T07:08:46;12.80;99.90
44579;DHT22;37422;51.402;0.016;2022-10-22T07:11:16;12.90;99.90
44579;DHT22;37422;51.402;0.016;2022-10-22T07:13:44;12.90;99.90
44579;DHT22;37422;51.402;0.016;2022-10-22T07:16:13;13.00;99.90
44579;DHT22;37422;51.402;0.016;2022-10-22T07:18:41;13.00;99.90
44579;DHT22;37422;51.402;0.016;2022-10-22T07:21:10;13.10;99.90
44579;DHT22;37422;51.402;0.016;2022-10-22T07:23:38;13.20;99.90
44579;DHT22;37422;51.402;0.016;2022-10-22T07:26:07;13.30;99.90
44579;DHT22;37422;51.402;0.016;2022-10-22T07:28:36;13.40;99.90
44579;DHT22;37422;51.402;0.016;2022-10-22T07:31:10;13.50;99.90
44579;DHT22;37422;51.402;0.016;2022-10-22T07:33:39;13.60;99.90
44579;DHT22;37422;51.402;0.016;2022-10-22T07:36:09;13.70;99.90
44579;DHT22;37422;51.402;0.016;2022-10-22T07:38:37;13.80;99.90
44579;DHT22;37422;51.402;0.016;2022-10-22T07:41:05;13.90;99.90
44579;DHT22;37422;51.402;0.016;2022-10-22T07:43:32;14.00;99.90
44579;DHT22;37422;51.402;0.016;2022-10-22T07:46:00;14.00;99.90
44579;DHT22;37422;51.402;0.016;2022-10-22T07:48:32;14.10;99.90
44579;DHT22;37422;51.402;0.016;2022-10-22T07:50:59;14.00;99.90
44579;DHT22;37422;51.402;0.016;2022-10-22T07:53:27;14.10;99.90
44579;DHT22;37422;51.402;0.016;2022-10-22T07:55:55;14.10;99.90
44579;DHT22;37422;51.402;0.016;2022-10-22T07:58:26;14.10;99.90
44579;DHT22;37422;51.402;0.016;2022-10-22T08:00:57;14.10;99.90
44579;DHT22;37422;51.402;0.016;2022-10-22T08:03:28;14.00;99.90
44579;DHT22;37422;51.402;0.016;2022-10-22T08:05:56;14.00;99.90
44579;DHT22;37422;51.402;0.016;2022-10-22T08:08:24;14.10;99.90
44579;DHT22;37422;51.402;0.016;2022-10-22T08:10:58;14.10;99.90
44579;DHT22;37422;51.402;0.016;2022-10-22T08:13:27;14.10;99.90
44579;DHT22;37422;51.402;0.016;2022-10-22T08:15:59;14.10;99.90
44579;DHT22;37422;51.402;0.016;2022-10-22T08:18:27;14.20;99.90
44579;DHT22;37422;51.402;0.016;2022-10-22T08:20:55;14.20;99.90
44579;DHT22;37422;51.402;0.016;2022-10-22T08:23:22;14.20;99.90
44579;DHT22;37422;51.402;0.016;2022-10-22T08:25:56;14.30;99.90
44579;DHT22;37422;51.402;0.016;2022-10-22T08:28:24;14.40;99.90
44579;DHT22;37422;51.402;0.016;2022-10-22T08:30:52;14.40;99.90
44579;DHT22;37422;51.402;0.016;2022-10-22T08:33:19;14.50;99.90
44579;DHT22;37422;51.402;0.016;2022-10-22T08:35:48;14.70;99.90
44579;DHT22;37422;51.402;0.016;2022-10-22T08:38:17;14.90;99.90
44579;DHT22;37422;51.402;0.016;2022-10-22T08:40:52;15.00;99.90
44579;DHT22;37422;51.402;0.016;2022-10-22T08:48:51;15.00;99.90
44579;DHT22;37422;51.402;0.016;2022-10-22T08:51:26;15.00;99.90
44579;DHT22;37422;51.402;0.016;2022-10-22T09:05:34;15.10;99.90
44579;DHT22;37422;51.402;0.016;2022-10-22T09:08:10;15.10;99.90
44579;DHT22;37422;51.402;0.016;2022-10-22T09:10:42;15.20;99.90
44579;DHT22;37422;51.402;0.016;2022-10-22T09:13:16;15.20;99.90
44579;DHT22;37422;51.402;0.016;2022-10-22T09:16:12;15.40;99.90
44579;DHT22;37422;51.402;0.016;2022-10-22T09:18:41;15.50;99.90
44579;DHT22;37422;51.402;0.016;2022-10-22T09:21:36;15.70;99.90
44579;DHT22;37422;51.402;0.016;2022-10-22T09:24:26;15.90;99.90
44579;DHT22;37422;51.402;0.016;2022-10-22T09:27:00;16.10;99.90
44579;DHT22;37422;51.402;0.016;2022-10-22T09:29:32;16.30;99.90
44579;DHT22;37422;51.402;0.016;2022-10-22T09:32:00;16.40;99.90
44579;DHT22;37422;51.402;0.016;2022-10-22T09:34:28;16.60;99.90
44579;DHT22;37422;51.402;0.016;2022-10-22T09:37:02;16.70;99.90
44579;DHT22;37422;51.402;0.016;2022-10-22T09:39:34;16.80;99.90
44579;DHT22;37422;51.402;0.016;2022-10-22T09:44:54;16.80;99.90
44579;DHT22;37422;51.402;0.016;2022-10-22T09:47:39;16.80;99.90
44579;DHT22;37422;51.402;0.016;2022-10-22T09:50:26;16.80;99.90
44579;DHT22;37422;51.402;0.016;2022-10-22T09:53:10;16.90;99.90
44579;DHT22;37422;51.402;0.016;2022-10-22T09:55:41;17.00;99.90
44579;DHT22;37422;51.402;0.016;2022-10-22T09:58:13;17.10;99.90
44579;DHT22;37422;51.402;0.016;2022-10-22T10:00:44;17.10;99.90
44579;DHT22;37422;51.402;0.016;2022-10-22T10:03:17;17.20;99.90
44579;DHT22;37422;51.402;0.016;2022-10-22T10:05:51;17.30;99.90
44579;DHT22;37422;51.402;0.016;2022-10-22T10:08:19;17.50;99.90
44579;DHT22;37422;51.402;0.016;2022-10-22T10:15:54;18.00;99.90
44579;DHT22;37422;51.402;0.016;2022-10-22T10:20:39;18.70;99.90
44579;DHT22;37422;51.402;0.016;2022-10-22T10:23:15;19.20;99.90
44579;DHT22;37422;51.402;0.016;2022-10-22T10:29:44;20.60;99.90
44579;DHT22;37422;51.402;0.016;2022-10-22T10:46:45;23.30;99.90
44579;DHT22;37422;51.402;0.016;2022-10-22T10:48:55;23.10;99.90
44579;DHT22;37422;51.402;0.016;2022-10-22T10:51:44;22.70;98.00
44579;DHT22;37422;51.402;0.016;2022-10-22T10:57:24;22.30;99.80
44579;DHT22;37422;51.402;0.016;2022-10-22T11:03:39;22.30;99.80
44579;DHT22;37422;51.402;0.016;2022-10-22T11:06:10;22.20;99.90
44579;DHT22;37422;51.402;0.016;2022-10-22T11:09:29;21.90;98.40
44579;DHT22;37422;51.402;0.016;2022-10-22T11:12:32;21.50;98.20
44579;DHT22;37422;51.402;0.016;2022-10-22T11:18:04;21.60;99.90
44579;DHT22;37422;51.402;0.016;2022-10-22T11:20:40;21.60;99.90
44579;DHT22;37422;51.402;0.016;2022-10-22T11:23:29;21.80;99.90
44579;DHT22;37422;51.402;0.016;2022-10-22T11:26:00;21.80;99.60
44579;DHT22;37422;51.402;0.016;2022-10-22T11:28:39;21.90;99.60
44579;DHT22;37422;51.402;0.016;2022-10-22T11:31:21;21.90;99.10
44579;DHT22;37422;51.402;0.016;2022-10-22T11:36:37;21.80;99.00
44579;DHT22;37422;51.402;0.016;2022-10-22T11:39:05;21.70;99.10
44579;DHT22;37422;51.402;0.016;2022-10-22T11:41:36;21.80;97.90
44579;DHT22;37422;51.402;0.016;2022-10-22T11:44:10;22.00;99.60
44579;DHT22;37422;51.402;0.016;2022-10-22T11:46:57;22.40;98.50
44579;DHT22;37422;51.402;0.016;2022-10-22T11:49:40;23.10;98.70
44579;DHT22;37422;51.402;0.016;2022-10-22T11:52:23;23.70;98.60
44579;DHT22;37422;51.402;0.016;2022-10-22T11:55:02;24.10;94.40
44579;DHT22;37422;51.402;0.016;2022-10-22T11:57:37;24.30;97.10
44579;DHT22;37422;51.402;0.016;2022-10-22T12:00:48;24.40;95.20
44579;DHT22;37422;51.402;0.016;2022-10-22T12:11:25;23.70;95.50
44579;DHT22;37422;51.402;0.016;2022-10-22T12:14:21;23.40;94.60
44579;DHT22;37422;51.402;0.016;2022-10-22T12:19:37;23.00;96.70
44579;DHT22;37422;51.402;0.016;2022-10-22T12:22:33;23.00;96.90
44579;DHT22;37422;51.402;0.016;2022-10-22T12:25:08;23.00;96.60
44579;DHT22;37422;51.402;0.016;2022-10-22T12:27:38;22.70;95.40
44579;DHT22;37422;51.402;0.016;2022-10-22T12:30:33;22.30;96.90
44579;DHT22;37422;51.402;0.016;2022-10-22T12:33:05;21.90;96.60
44579;DHT22;37422;51.402;0.016;2022-10-22T12:35:41;21.70;97.20
44579;DHT22;37422;51.402;0.016;2022-10-22T12:38:14;22.00;97.40
44579;DHT22;37422;51.402;0.016;2022-10-22T12:40:45;22.30;97.00
44579;DHT22;37422;51.402;0.016;2022-10-22T12:43:29;22.50;96.60
44579;DHT22;37422;51.402;0.016;2022-10-22T12:46:01;22.40;96.10
44579;DHT22;37422;51.402;0.016;2022-10-22T12:48:36;22.40;96.70
44579;DHT22;37422;51.402;0.016;2022-10-22T12:51:17;22.40;97.00
44579;DHT22;37422;51.402;0.016;2022-10-22T12:53:54;22.30;95.80
44579;DHT22;37422;51.402;0.016;2022-10-22T12:56:28;22.00;96.90
44579;DHT22;37422;51.402;0.016;2022-10-22T13:01:43;21.20;97.70
44579;DHT22;37422;51.402;0.016;2022-10-22T13:07:02;20.50;98.30
44579;DHT22;37422;51.402;0.016;2022-10-22T13:09:56;20.10;98.70
44579;DHT22;37422;51.402;0.016;2022-10-22T13:12:26;19.70;99.30
44579;DHT22;37422;51.402;0.016;2022-10-22T13:14:56;19.50;99.50
44579;DHT22;37422;51.402;0.016;2022-10-22T13:17:44;19.20;99.70
44579;DHT22;37422;51.402;0.016;2022-10-22T13:20:21;19.00;99.90
44579;DHT22;37422;51.402;0.016;2022-10-22T13:22:58;18.90;99.90
44579;DHT22;37422;51.402;0.016;2022-10-22T13:25:34;18.80;99.90
44579;DHT22;37422;51.402;0.016;2022-10-22T13:28:19;18.80;99.90
44579;DHT22;37422;51.402;0.016;2022-10-22T13:30:56;18.70;99.90
44579;DHT22;37422;51.402;0.016;2022-10-22T13:33:32;18.60;99.90
44579;DHT22;37422;51.402;0.016;2022-10-22T13:36:02;18.50;99.90
44579;DHT22;37422;51.402;0.016;2022-10-22T13:38:30;18.30;99.90
44579;DHT22;37422;51.402;0.016;2022-10-22T13:40:58;18.20;99.90
44579;DHT22;37422;51.402;0.016;2022-10-22T13:43:26;18.00;99.90
44579;DHT22;37422;51.402;0.016;2022-10-22T13:45:57;18.00;99.90
44579;DHT22;37422;51.402;0.016;2022-10-22T13:48:30;18.00;99.90
44579;DHT22;37422;51.402;0.016;2022-10-22T13:50:59;18.10;99.90
44579;DHT22;37422;51.402;0.016;2022-10-22T13:53:27;18.20;99.90
44579;DHT22;37422;51.402;0.016;2022-10-22T13:55:56;18.40;99.90
44579;DHT22;37422;51.402;0.016;2022-10-22T13:58:24;18.50;99.90
44579;DHT22;37422;51.402;0.016;2022-10-22T14:04:35;18.80;99.90
44579;DHT22;37422;51.402;0.016;2022-10-22T14:07:31;18.90;99.90
44579;DHT22;37422;51.402;0.016;2022-10-22T14:09:59;19.00;99.90
44579;DHT22;37422;51.402;0.016;2022-10-22T14:12:27;19.00;99.90
44579;DHT22;37422;51.402;0.016;2022-10-22T14:14:58;19.00;99.90
44579;DHT22;37422;51.402;0.016;2022-10-22T14:17:27;19.00;99.90
44579;DHT22;37422;51.402;0.016;2022-10-22T14:19:56;18.90;99.90
44579;DHT22;37422;51.402;0.016;2022-10-22T14:22:26;18.90;99.90
44579;DHT22;37422;51.402;0.016;2022-10-22T14:24:54;18.90;99.90
44579;DHT22;37422;51.402;0.016;2022-10-22T14:27:22;18.80;99.90
44579;DHT22;37422;51.402;0.016;2022-10-22T14:29:50;18.80;99.90
44579;DHT22;37422;51.402;0.016;2022-10-22T14:32:23;18.70;99.90
44579;DHT22;37422;51.402;0.016;2022-10-22T14:35:00;18.70;99.90
44579;DHT22;37422;51.402;0.016;2022-10-22T14:37:52;18.60;99.90
44579;DHT22;37422;51.402;0.016;2022-10-22T14:40:29;18.50;99.90
44579;DHT22;37422;51.402;0.016;2022-10-22T14:42:58;18.40;99.90
44579;DHT22;37422;51.402;0.016;2022-10-22T14:45:29;18.30;99.90
44579;DHT22;37422;51.402;0.016;2022-10-22T14:48:00;18.20;99.90
44579;DHT22;37422;51.402;0.016;2022-10-22T14:50:32;18.10;99.90
44579;DHT22;37422;51.402;0.016;2022-10-22T14:53:01;18.10;99.90
44579;DHT22;37422;51.402;0.016;2022-10-22T14:55:34;18.10;99.90
44579;DHT22;37422;51.402;0.016;2022-10-22T14:58:02;18.00;99.90
44579;DHT22;37422;51.402;0.016;2022-10-22T15:00:34;18.10;99.90
44579;DHT22;37422;51.402;0.016;2022-10-22T15:03:03;18.00;99.90
44579;DHT22;37422;51.402;0.016;2022-10-22T15:05:32;17.90;99.90
44579;DHT22;37422;51.402;0.016;2022-10-22T15:08:01;18.00;99.90
44579;DHT22;37422;51.402;0.016;2022-10-22T15:10:31;18.00;99.90
44579;DHT22;37422;51.402;0.016;2022-10-22T15:12:59;17.90;99.90
44579;DHT22;37422;51.402;0.016;2022-10-22T15:15:27;18.10;99.90
44579;DHT22;37422;51.402;0.016;2022-10-22T15:18:04;18.10;99.90
44579;DHT22;37422;51.402;0.016;2022-10-22T15:20:33;18.10;99.90
44579;DHT22;37422;51.402;0.016;2022-10-22T15:23:01;18.10;99.90
44579;DHT22;37422;51.402;0.016;2022-10-22T15:25:30;18.00;99.90
44579;DHT22;37422;51.402;0.016;2022-10-22T15:27:58;18.00;99.90
44579;DHT22;37422;51.402;0.016;2022-10-22T15:30:36;17.90;99.90
44579;DHT22;37422;51.402;0.016;2022-10-22T15:33:04;17.90;99.90
44579;DHT22;37422;51.402;0.016;2022-10-22T15:35:32;17.80;99.90
44579;DHT22;37422;51.402;0.016;2022-10-22T15:38:00;17.80;99.90
44579;DHT22;37422;51.402;0.016;2022-10-22T15:40:29;17.80;99.90
44579;DHT22;37422;51.402;0.016;2022-10-22T15:42:58;17.70;99.90
44579;DHT22;37422;51.402;0.016;2022-10-22T15:45:29;18.00;99.90
44579;DHT22;37422;51.402;0.016;2022-10-22T15:47:57;17.60;99.90
44579;DHT22;37422;51.402;0.016;2022-10-22T15:50:44;17.60;99.90
44579;DHT22;37422;51.402;0.016;2022-10-22T15:53:14;17.50;99.90
44579;DHT22;37422;51.402;0.016;2022-10-22T15:55:47;17.40;99.90
44579;DHT22;37422;51.402;0.016;2022-10-22T15:58:16;17.30;99.90
44579;DHT22;37422;51.402;0.016;2022-10-22T16:00:43;17.30;99.90
44579;DHT22;37422;51.402;0.016;2022-10-22T16:03:11;17.30;99.90
44579;DHT22;37422;51.402;0.016;2022-10-22T16:05:39;17.20;99.90
44579;DHT22;37422;51.402;0.016;2022-10-22T16:08:08;17.10;99.90
44579;DHT22;37422;51.402;0.016;2022-10-22T16:10:35;17.10;99.90
44579;DHT22;37422;51.402;0.016;2022-10-22T16:13:03;17.00;99.90
44579;DHT22;37422;51.402;0.016;2022-10-22T16:15:33;16.90;99.90
44579;DHT22;37422;51.402;0.016;2022-10-22T16:18:02;16.90;99.90
44579;DHT22;37422;51.402;0.016;2022-10-22T16:20:30;16.80;99.90
44579;DHT22;37422;51.402;0.016;2022-10-22T16:22:59;16.80;99.90
44579;DHT22;37422;51.402;0.016;2022-10-22T16:25:27;16.70;99.90
44579;DHT22;37422;51.402;0.016;2022-10-22T16:27:56;16.70;99.90
44579;DHT22;37422;51.402;0.016;2022-10-22T16:30:24;16.70;99.90
44579;DHT22;37422;51.402;0.016;2022-10-22T16:32:52;16.60;99.90
44579;DHT22;37422;51.402;0.016;2022-10-22T16:35:19;16.60;99.90
44579;DHT22;37422;51.402;0.016;2022-10-22T16:37:47;16.50;99.90
44579;DHT22;37422;51.402;0.016;2022-10-22T16:40:15;16.50;99.90
44579;DHT22;37422;51.402;0.016;2022-10-22T16:42:43;16.40;99.90
44579;DHT22;37422;51.402;0.016;2022-10-22T16:45:12;16.40;99.90
44579;DHT22;37422;51.402;0.016;2022-10-22T16:47:41;16.30;99.90
44579;DHT22;37422;51.402;0.016;2022-10-22T16:50:10;16.30;99.90
44579;DHT22;37422;51.402;0.016;2022-10-22T16:52:38;16.30;99.90
44579;DHT22;37422;51.402;0.016;2022-10-22T16:55:06;16.20;99.90
44579;DHT22;37422;51.402;0.016;2022-10-22T16:57:38;16.20;99.90
44579;DHT22;37422;51.402;0.016;2022-10-22T17:00:07;16.10;99.90
44579;DHT22;37422;51.402;0.016;2022-10-22T17:02:35;16.10;99.90
44579;DHT22;37422;51.402;0.016;2022-10-22T17:05:04;16.00;99.90
44579;DHT22;37422;51.402;0.016;2022-10-22T17:07:32;16.00;99.90
44579;DHT22;37422;51.402;0.016;2022-10-22T17:09:59;15.90;99.90
44579;DHT22;37422;51.402;0.016;2022-10-22T17:12:29;15.90;99.90
44579;DHT22;37422;51.402;0.016;2022-10-22T17:15:03;15.90;99.90
44579;DHT22;37422;51.402;0.016;2022-10-22T17:17:32;15.80;99.90
44579;DHT22;37422;51.402;0.016;2022-10-22T17:20:00;15.80;99.90
44579;DHT22;37422;51.402;0.016;2022-10-22T17:22:28;15.80;99.90
44579;DHT22;37422;51.402;0.016;2022-10-22T17:28:22;15.70;99.90
44579;DHT22;37422;51.402;0.016;2022-10-22T17:31:07;15.70;99.90
44579;DHT22;37422;51.402;0.016;2022-10-22T17:33:36;15.60;99.90
44579;DHT22;37422;51.402;0.016;2022-10-22T17:36:07;15.60;99.90
44579;DHT22;37422;51.402;0.016;2022-10-22T17:38:38;15.60;99.90
44579;DHT22;37422;51.402;0.016;2022-10-22T17:41:08;15.60;99.90
44579;DHT22;37422;51.402;0.016;2022-10-22T17:43:40;15.50;99.90
44579;DHT22;37422;51.402;0.016;2022-10-22T17:46:13;15.50;99.90
44579;DHT22;37422;51.402;0.016;2022-10-22T17:48:41;15.50;99.90
44579;DHT22;37422;51.402;0.016;2022-10-22T17:51:10;15.40;99.90
44579;DHT22;37422;51.402;0.016;2022-10-22T17:53:41;15.40;99.90
44579;DHT22;37422;51.402;0.016;2022-10-22T17:56:14;15.40;99.90
44579;DHT22;37422;51.402;0.016;2022-10-22T17:58:43;15.30;99.90